sensor_id;sensor_type;location;lat;lon;timestamp;pressure;altitude;pressure_sealevel;temperature;humidity
62548;BME280;48602;45.192;5.722;2023-04-02T00:00:33;98816.34;;;9.16;88.35
62548;BME280;48602;45.192;5.722;2023-04-02T00:03:04;98817.13;;;9.18;88.61
62548;BME280;48602;45.192;5.722;2023-04-02T00:05:39;98824.13;;;9.19;88.52
62548;BME280;48602;45.192;5.722;2023-04-02T00:08:39;98831.00;;;9.22;88.44
62548;BME280;48602;45.192;5.722;2023-04-02T00:11:05;98830.94;;;9.23;88.45
62548;BME280;48602;45.192;5.722;2023-04-02T00:13:38;98834.50;;;9.22;87.52
62548;BME280;48602;45.192;5.722;2023-04-02T00:16:11;98831.84;;;9.22;86.82
62548;BME280;48602;45.192;5.722;2023-04-02T00:18:43;98833.72;;;9.20;86.16
62548;BME280;48602;45.192;5.722;2023-04-02T00:23:44;98830.50;;;9.12;86.38
62548;BME280;48602;45.192;5.722;2023-04-02T00:28:54;98838.56;;;9.07;85.96
62548;BME280;48602;45.192;5.722;2023-04-02T00:31:20;98828.19;;;9.04;85.52
62548;BME280;48602;45.192;5.722;2023-04-02T00:33:47;98829.97;;;9.04;86.46
62548;BME280;48602;45.192;5.722;2023-04-02T00:36:13;98826.34;;;9.06;86.00
62548;BME280;48602;45.192;5.722;2023-04-02T00:38:41;98831.47;;;9.09;86.63
62548;BME280;48602;45.192;5.722;2023-04-02T00:41:14;98841.09;;;9.10;85.25
62548;BME280;48602;45.192;5.722;2023-04-02T00:43:43;98842.13;;;9.06;86.25
62548;BME280;48602;45.192;5.722;2023-04-02T00:46:14;98848.38;;;9.04;86.56
62548;BME280;48602;45.192;5.722;2023-04-02T00:51:22;98835.09;;;9.07;87.24
62548;BME280;48602;45.192;5.722;2023-04-02T00:53:49;98855.16;;;9.09;87.54
62548;BME280;48602;45.192;5.722;2023-04-02T00:56:25;98848.13;;;9.10;87.60
62548;BME280;48602;45.192;5.722;2023-04-02T00:58:54;98857.63;;;9.14;87.61
62548;BME280;48602;45.192;5.722;2023-04-02T01:01:25;98854.97;;;9.14;87.53
62548;BME280;48602;45.192;5.722;2023-04-02T01:03:59;98852.31;;;9.16;87.54
62548;BME280;48602;45.192;5.722;2023-04-02T01:06:29;98855.72;;;9.18;87.26
62548;BME280;48602;45.192;5.722;2023-04-02T01:12:02;98849.56;;;9.19;87.06
62548;BME280;48602;45.192;5.722;2023-04-02T01:26:17;98867.09;;;9.18;87.20
62548;BME280;48602;45.192;5.722;2023-04-02T01:29:00;98865.38;;;9.17;86.81
62548;BME280;48602;45.192;5.722;2023-04-02T01:31:28;98866.31;;;9.16;87.14
62548;BME280;48602;45.192;5.722;2023-04-02T01:33:55;98874.13;;;9.18;87.91
62548;BME280;48602;45.192;5.722;2023-04-02T01:44:38;98867.72;;;9.25;87.28
62548;BME280;48602;45.192;5.722;2023-04-02T01:47:10;98863.25;;;9.27;87.52
62548;BME280;48602;45.192;5.722;2023-04-02T01:49:36;98863.25;;;9.27;87.45
62548;BME280;48602;45.192;5.722;2023-04-02T01:52:04;98864.97;;;9.28;86.96
62548;BME280;48602;45.192;5.722;2023-04-02T01:54:30;98864.09;;;9.27;87.36
62548;BME280;48602;45.192;5.722;2023-04-02T01:56:55;98868.50;;;9.27;87.25
62548;BME280;48602;45.192;5.722;2023-04-02T01:59:22;98871.09;;;9.28;88.06
62548;BME280;48602;45.192;5.722;2023-04-02T02:02:03;98871.88;;;9.30;87.65
62548;BME280;48602;45.192;5.722;2023-04-02T02:04:30;98873.59;;;9.31;87.66
62548;BME280;48602;45.192;5.722;2023-04-02T02:06:57;98877.16;;;9.30;87.46
62548;BME280;48602;45.192;5.722;2023-04-02T02:09:28;98883.31;;;9.29;87.71
62548;BME280;48602;45.192;5.722;2023-04-02T02:11:56;98877.19;;;9.29;87.55
62548;BME280;48602;45.192;5.722;2023-04-02T02:14:24;98875.44;;;9.29;87.18
62548;BME280;48602;45.192;5.722;2023-04-02T02:16:50;98881.72;;;9.25;87.12
62548;BME280;48602;45.192;5.722;2023-04-02T02:19:34;98871.44;;;9.19;86.94
62548;BME280;48602;45.192;5.722;2023-04-02T02:22:32;98871.50;;;9.18;87.16
62548;BME280;48602;45.192;5.722;2023-04-02T02:25:01;98875.28;;;9.10;85.63
62548;BME280;48602;45.192;5.722;2023-04-02T02:30:03;98874.78;;;9.01;86.45
62548;BME280;48602;45.192;5.722;2023-04-02T02:32:30;98873.06;;;9.00;86.74
62548;BME280;48602;45.192;5.722;2023-04-02T02:35:11;98877.41;;;9.01;86.35
62548;BME280;48602;45.192;5.722;2023-04-02T02:37:43;98887.19;;;8.97;85.21
62548;BME280;48602;45.192;5.722;2023-04-02T02:40:30;98875.16;;;8.90;84.83
62548;BME280;48602;45.192;5.722;2023-04-02T02:43:00;98874.44;;;8.87;85.68
62548;BME280;48602;45.192;5.722;2023-04-02T02:45:28;98878.16;;;8.81;85.40
62548;BME280;48602;45.192;5.722;2023-04-02T02:47:58;98873.00;;;8.78;85.40
62548;BME280;48602;45.192;5.722;2023-04-02T02:50:29;98880.94;;;8.77;85.19
62548;BME280;48602;45.192;5.722;2023-04-02T02:52:58;98881.03;;;8.73;85.82
62548;BME280;48602;45.192;5.722;2023-04-02T02:55:32;98888.97;;;8.72;86.51
62548;BME280;48602;45.192;5.722;2023-04-02T02:58:16;98899.44;;;8.73;87.35
62548;BME280;48602;45.192;5.722;2023-04-02T03:00:44;98897.56;;;8.77;87.96
62548;BME280;48602;45.192;5.722;2023-04-02T03:03:14;98901.69;;;8.84;88.68
62548;BME280;48602;45.192;5.722;2023-04-02T03:05:42;98901.59;;;8.87;88.88
62548;BME280;48602;45.192;5.722;2023-04-02T03:08:13;98910.25;;;8.89;89.33
62548;BME280;48602;45.192;5.722;2023-04-02T03:11:13;98914.38;;;8.96;88.90
62548;BME280;48602;45.192;5.722;2023-04-02T03:13:39;98908.16;;;8.99;89.30
62548;BME280;48602;45.192;5.722;2023-04-02T03:16:23;98915.03;;;9.03;88.85
62548;BME280;48602;45.192;5.722;2023-04-02T03:19:19;98908.75;;;9.05;88.59
62548;BME280;48602;45.192;5.722;2023-04-02T03:21:53;98906.88;;;9.09;88.71
62548;BME280;48602;45.192;5.722;2023-04-02T03:27:04;98905.16;;;9.08;88.42
62548;BME280;48602;45.192;5.722;2023-04-02T03:29:39;98911.19;;;9.12;88.07
62548;BME280;48602;45.192;5.722;2023-04-02T03:32:13;98908.53;;;9.12;87.79
62548;BME280;48602;45.192;5.722;2023-04-02T03:34:54;98914.63;;;9.14;87.68
62548;BME280;48602;45.192;5.722;2023-04-02T03:37:28;98917.19;;;9.15;87.62
62548;BME280;48602;45.192;5.722;2023-04-02T03:42:27;98920.63;;;9.17;87.54
62548;BME280;48602;45.192;5.722;2023-04-02T03:44:58;98923.25;;;9.17;88.04
62548;BME280;48602;45.192;5.722;2023-04-02T03:52:28;98931.88;;;9.21;87.65
62548;BME280;48602;45.192;5.722;2023-04-02T03:54:55;98930.13;;;9.21;87.45
62548;BME280;48602;45.192;5.722;2023-04-02T03:57:36;98931.81;;;9.22;87.51
62548;BME280;48602;45.192;5.722;2023-04-02T04:00:16;98933.53;;;9.23;87.83
62548;BME280;48602;45.192;5.722;2023-04-02T04:02:56;98932.66;;;9.23;88.27
62548;BME280;48602;45.192;5.722;2023-04-02T04:05:25;98938.66;;;9.26;88.27
62548;BME280;48602;45.192;5.722;2023-04-02T04:07:56;98936.84;;;9.28;88.08
62548;BME280;48602;45.192;5.722;2023-04-02T04:10:24;98942.06;;;9.30;87.77
62548;BME280;48602;45.192;5.722;2023-04-02T04:12:54;98945.53;;;9.30;87.83
62548;BME280;48602;45.192;5.722;2023-04-02T04:15:26;98937.69;;;9.29;88.05
62548;BME280;48602;45.192;5.722;2023-04-02T04:18:16;98936.84;;;9.28;87.73
62548;BME280;48602;45.192;5.722;2023-04-02T04:20:53;98930.72;;;9.28;88.25
62548;BME280;48602;45.192;5.722;2023-04-02T04:23:27;98929.81;;;9.29;88.14
62548;BME280;48602;45.192;5.722;2023-04-02T04:31:38;98937.00;;;9.24;87.74
62548;BME280;48602;45.192;5.722;2023-04-02T04:34:10;98935.38;;;9.21;87.65
62548;BME280;48602;45.192;5.722;2023-04-02T04:36:50;98941.56;;;9.20;87.60
62548;BME280;48602;45.192;5.722;2023-04-02T04:39:28;98938.97;;;9.19;88.15
62548;BME280;48602;45.192;5.722;2023-04-02T04:41:58;98936.34;;;9.19;88.22
62548;BME280;48602;45.192;5.722;2023-04-02T04:44:45;98948.69;;;9.17;88.40
62548;BME280;48602;45.192;5.722;2023-04-02T04:47:17;98948.75;;;9.15;88.17
62548;BME280;48602;45.192;5.722;2023-04-02T04:50:04;98946.34;;;9.09;87.79
62548;BME280;48602;45.192;5.722;2023-04-02T04:52:39;98956.19;;;9.04;87.26
62548;BME280;48602;45.192;5.722;2023-04-02T04:57:49;98943.34;;;8.95;87.98
62548;BME280;48602;45.192;5.722;2023-04-02T05:00:29;98949.41;;;8.97;88.35
62548;BME280;48602;45.192;5.722;2023-04-02T05:05:48;98949.38;;;8.98;88.34
62548;BME280;48602;45.192;5.722;2023-04-02T05:08:18;98952.00;;;8.98;88.40
62548;BME280;48602;45.192;5.722;2023-04-02T05:10:51;98952.91;;;8.97;88.53
62548;BME280;48602;45.192;5.722;2023-04-02T05:18:39;98960.94;;;8.93;88.84
62548;BME280;48602;45.192;5.722;2023-04-02T05:21:18;98968.03;;;8.91;88.98
62548;BME280;48602;45.192;5.722;2023-04-02T05:23:53;98968.94;;;8.90;88.93
62548;BME280;48602;45.192;5.722;2023-04-02T05:26:27;98977.63;;;8.92;88.75
62548;BME280;48602;45.192;5.722;2023-04-02T05:32:12;98970.56;;;8.94;88.52
62548;BME280;48602;45.192;5.722;2023-04-02T05:34:40;98975.91;;;8.91;88.52
62548;BME280;48602;45.192;5.722;2023-04-02T05:37:15;98974.19;;;8.90;88.58
62548;BME280;48602;45.192;5.722;2023-04-02T05:39:44;98971.53;;;8.91;88.58
62548;BME280;48602;45.192;5.722;2023-04-02T05:42:23;98979.34;;;8.93;87.95
62548;BME280;48602;45.192;5.722;2023-04-02T05:47:41;98988.06;;;8.95;88.38
62548;BME280;48602;45.192;5.722;2023-04-02T05:52:45;98984.47;;;8.97;88.41
62548;BME280;48602;45.192;5.722;2023-04-02T05:57:46;98990.56;;;8.98;88.02
62548;BME280;48602;45.192;5.722;2023-04-02T06:00:40;98996.69;;;8.98;87.94
62548;BME280;48602;45.192;5.722;2023-04-02T06:04:10;98993.97;;;9.01;87.57
62548;BME280;48602;45.192;5.722;2023-04-02T06:09:10;98993.63;;;9.10;87.21
62548;BME280;48602;45.192;5.722;2023-04-02T06:11:48;98990.78;;;9.17;87.08
62548;BME280;48602;45.192;5.722;2023-04-02T06:14:16;98994.03;;;9.23;86.93
62548;BME280;48602;45.192;5.722;2023-04-02T06:16:43;98999.00;;;9.31;86.46
62548;BME280;48602;45.192;5.722;2023-04-02T06:19:22;98995.16;;;9.39;86.67
62548;BME280;48602;45.192;5.722;2023-04-02T06:21:51;98994.84;;;9.49;86.35
62548;BME280;48602;45.192;5.722;2023-04-02T06:24:21;98998.03;;;9.57;85.85
62548;BME280;48602;45.192;5.722;2023-04-02T06:26:54;98996.78;;;9.67;85.80
62548;BME280;48602;45.192;5.722;2023-04-02T06:29:41;99004.94;;;9.83;85.56
62548;BME280;48602;45.192;5.722;2023-04-02T06:32:10;99008.00;;;9.94;85.02
62548;BME280;48602;45.192;5.722;2023-04-02T06:34:38;99013.78;;;10.03;84.58
62548;BME280;48602;45.192;5.722;2023-04-02T06:37:16;99009.84;;;10.13;83.70
62548;BME280;48602;45.192;5.722;2023-04-02T06:39:44;99013.84;;;10.24;83.41
62548;BME280;48602;45.192;5.722;2023-04-02T06:44:36;99010.91;;;10.31;82.27
62548;BME280;48602;45.192;5.722;2023-04-02T06:47:06;99020.53;;;10.32;82.45
62548;BME280;48602;45.192;5.722;2023-04-02T06:49:38;99011.53;;;10.38;81.71
62548;BME280;48602;45.192;5.722;2023-04-02T06:52:57;99019.09;;;10.45;81.61
62548;BME280;48602;45.192;5.722;2023-04-02T06:54:58;99022.34;;;10.52;80.99
62548;BME280;48602;45.192;5.722;2023-04-02T06:57:23;99022.88;;;10.60;81.28
62548;BME280;48602;45.192;5.722;2023-04-02T06:59:49;99022.28;;;10.74;80.23
62548;BME280;48602;45.192;5.722;2023-04-02T07:02:32;99025.47;;;10.82;80.05
62548;BME280;48602;45.192;5.722;2023-04-02T07:05:04;99030.41;;;10.90;80.05
62548;BME280;48602;45.192;5.722;2023-04-02T07:07:30;99030.88;;;10.99;79.61
62548;BME280;48602;45.192;5.722;2023-04-02T07:09:55;99037.41;;;11.11;79.46
62548;BME280;48602;45.192;5.722;2023-04-02T07:12:23;99035.25;;;11.21;78.71
62548;BME280;48602;45.192;5.722;2023-04-02T07:14:49;99033.28;;;11.24;77.97
62548;BME280;48602;45.192;5.722;2023-04-02T07:17:16;99041.09;;;11.27;78.20
62548;BME280;48602;45.192;5.722;2023-04-02T07:19:42;99041.09;;;11.27;76.96
62548;BME280;48602;45.192;5.722;2023-04-02T07:22:10;99050.84;;;11.25;78.24
62548;BME280;48602;45.192;5.722;2023-04-02T07:24:35;99050.72;;;11.28;78.21
62548;BME280;48602;45.192;5.722;2023-04-02T07:27:01;99049.66;;;11.32;77.87
62548;BME280;48602;45.192;5.722;2023-04-02T07:29:26;99050.47;;;11.34;77.53
62548;BME280;48602;45.192;5.722;2023-04-02T07:31:52;99054.59;;;11.40;77.28
62548;BME280;48602;45.192;5.722;2023-04-02T07:34:18;99056.09;;;11.45;77.46
62548;BME280;48602;45.192;5.722;2023-04-02T07:36:43;99060.41;;;11.48;77.20
62548;BME280;48602;45.192;5.722;2023-04-02T07:39:09;99055.91;;;11.50;77.40
62548;BME280;48602;45.192;5.722;2023-04-02T07:41:55;99049.56;;;11.54;76.85
62548;BME280;48602;45.192;5.722;2023-04-02T07:44:22;99059.13;;;11.57;76.67
62548;BME280;48602;45.192;5.722;2023-04-02T07:46:47;99062.34;;;11.63;76.58
62548;BME280;48602;45.192;5.722;2023-04-02T07:49:12;99053.38;;;11.67;76.67
62548;BME280;48602;45.192;5.722;2023-04-02T07:51:38;99066.19;;;11.75;76.74
62548;BME280;48602;45.192;5.722;2023-04-02T07:54:03;99065.25;;;11.77;75.84
62548;BME280;48602;45.192;5.722;2023-04-02T07:56:29;99066.81;;;11.81;75.89
62548;BME280;48602;45.192;5.722;2023-04-02T07:58:55;99079.69;;;11.89;75.88
62548;BME280;48602;45.192;5.722;2023-04-02T08:01:24;99068.03;;;11.93;74.97
62548;BME280;48602;45.192;5.722;2023-04-02T08:03:50;99079.38;;;11.95;74.71
62548;BME280;48602;45.192;5.722;2023-04-02T08:06:15;99070.41;;;11.99;74.49
62548;BME280;48602;45.192;5.722;2023-04-02T08:08:41;99077.25;;;12.03;74.12
62548;BME280;48602;45.192;5.722;2023-04-02T08:11:07;99091.88;;;12.10;73.33
62548;BME280;48602;45.192;5.722;2023-04-02T08:13:33;99081.31;;;12.10;72.75
62548;BME280;48602;45.192;5.722;2023-04-02T08:15:59;99087.59;;;12.08;72.63
62548;BME280;48602;45.192;5.722;2023-04-02T08:18:25;99090.81;;;11.96;71.24
62548;BME280;48602;45.192;5.722;2023-04-02T08:20:51;99092.03;;;11.88;72.04
62548;BME280;48602;45.192;5.722;2023-04-02T08:23:17;99085.97;;;11.86;72.82
62548;BME280;48602;45.192;5.722;2023-04-02T08:25:44;99095.16;;;11.78;70.42
62548;BME280;48602;45.192;5.722;2023-04-02T08:28:10;99118.00;;;11.59;69.12
62548;BME280;48602;45.192;5.722;2023-04-02T08:30:36;99094.06;;;11.43;69.70
62548;BME280;48602;45.192;5.722;2023-04-02T08:33:01;99096.19;;;11.35;71.52
62548;BME280;48602;45.192;5.722;2023-04-02T08:35:27;99100.78;;;11.30;70.45
62548;BME280;48602;45.192;5.722;2023-04-02T08:37:53;99108.09;;;11.23;68.47
62548;BME280;48602;45.192;5.722;2023-04-02T08:40:30;99115.50;;;11.15;69.85
62548;BME280;48602;45.192;5.722;2023-04-02T08:47:49;99118.06;;;10.96;68.93
62548;BME280;48602;45.192;5.722;2023-04-02T08:50:35;99133.16;;;10.93;69.04
62548;BME280;48602;45.192;5.722;2023-04-02T08:53:04;99127.94;;;10.91;69.88
62548;BME280;48602;45.192;5.722;2023-04-02T08:55:38;99129.72;;;10.91;69.82
62548;BME280;48602;45.192;5.722;2023-04-02T08:58:41;99138.47;;;10.91;69.87
62548;BME280;48602;45.192;5.722;2023-04-02T09:03:59;99128.78;;;10.92;70.42
62548;BME280;48602;45.192;5.722;2023-04-02T09:06:27;99132.97;;;10.97;70.03
62548;BME280;48602;45.192;5.722;2023-04-02T09:08:54;99126.72;;;11.00;70.02
62548;BME280;48602;45.192;5.722;2023-04-02T09:11:34;99134.63;;;11.00;69.02
62548;BME280;48602;45.192;5.722;2023-04-02T09:14:12;99148.72;;;10.99;70.18
62548;BME280;48602;45.192;5.722;2023-04-02T09:16:43;99139.22;;;10.95;69.72
62548;BME280;48602;45.192;5.722;2023-04-02T09:19:37;99140.09;;;10.95;69.89
62548;BME280;48602;45.192;5.722;2023-04-02T09:24:31;99133.81;;;10.98;69.45
62548;BME280;48602;45.192;5.722;2023-04-02T09:26:57;99131.19;;;10.98;70.40
62548;BME280;48602;45.192;5.722;2023-04-02T09:29:39;99136.47;;;10.98;69.05
62548;BME280;48602;45.192;5.722;2023-04-02T09:35:52;99145.25;;;10.98;69.84
62548;BME280;48602;45.192;5.722;2023-04-02T09:38:18;99153.88;;;11.02;69.96
62548;BME280;48602;45.192;5.722;2023-04-02T09:40:53;99145.84;;;11.05;69.26
62548;BME280;48602;45.192;5.722;2023-04-02T09:46:22;99138.91;;;11.02;68.93
62548;BME280;48602;45.192;5.722;2023-04-02T09:48:52;99151.38;;;10.99;68.89
62548;BME280;48602;45.192;5.722;2023-04-02T09:51:26;99155.66;;;11.01;68.23
62548;BME280;48602;45.192;5.722;2023-04-02T09:56:32;99132.50;;;11.08;68.32
62548;BME280;48602;45.192;5.722;2023-04-02T09:59:18;99129.63;;;11.14;68.26
62548;BME280;48602;45.192;5.722;2023-04-02T10:04:42;99148.53;;;11.24;68.43
62548;BME280;48602;45.192;5.722;2023-04-02T10:09:58;99144.88;;;11.28;67.73
62548;BME280;48602;45.192;5.722;2023-04-02T10:12:25;99152.13;;;11.23;68.43
62548;BME280;48602;45.192;5.722;2023-04-02T10:14:51;99193.34;;;11.25;68.63
62548;BME280;48602;45.192;5.722;2023-04-02T10:17:25;99168.03;;;11.21;68.54
62548;BME280;48602;45.192;5.722;2023-04-02T10:20:02;99148.75;;;11.19;69.14
62548;BME280;48602;45.192;5.722;2023-04-02T10:22:31;99187.22;;;11.25;67.81
62548;BME280;48602;45.192;5.722;2023-04-02T10:24:58;99152.78;;;11.28;68.34
62548;BME280;48602;45.192;5.722;2023-04-02T10:27:35;99191.38;;;11.30;68.77
62548;BME280;48602;45.192;5.722;2023-04-02T10:30:23;99186.84;;;11.34;68.23
62548;BME280;48602;45.192;5.722;2023-04-02T10:32:56;99173.53;;;11.37;67.50
62548;BME280;48602;45.192;5.722;2023-04-02T10:35:41;99147.72;;;11.43;67.26
62548;BME280;48602;45.192;5.722;2023-04-02T10:49:44;99181.91;;;11.67;61.36
62548;BME280;48602;45.192;5.722;2023-04-02T10:52:17;99168.69;;;11.67;64.13
62548;BME280;48602;45.192;5.722;2023-04-02T10:54:49;99162.38;;;11.71;64.11
62548;BME280;48602;45.192;5.722;2023-04-02T10:59:55;99149.34;;;11.66;65.34
62548;BME280;48602;45.192;5.722;2023-04-02T11:02:31;99171.28;;;11.68;66.30
62548;BME280;48602;45.192;5.722;2023-04-02T11:05:02;99155.56;;;11.65;68.13
62548;BME280;48602;45.192;5.722;2023-04-02T11:07:37;99186.56;;;11.60;69.32
62548;BME280;48602;45.192;5.722;2023-04-02T11:10:05;99175.38;;;11.55;68.80
62548;BME280;48602;45.192;5.722;2023-04-02T11:12:42;99170.28;;;11.50;69.89
62548;BME280;48602;45.192;5.722;2023-04-02T11:15:15;99185.34;;;11.48;70.51
62548;BME280;48602;45.192;5.722;2023-04-02T11:17:43;99181.91;;;11.46;69.72
62548;BME280;48602;45.192;5.722;2023-04-02T11:23:13;99164.69;;;11.38;70.02
62548;BME280;48602;45.192;5.722;2023-04-02T11:25:40;99172.66;;;11.36;70.58
62548;BME280;48602;45.192;5.722;2023-04-02T11:28:27;99182.38;;;11.36;71.14
62548;BME280;48602;45.192;5.722;2023-04-02T11:30:54;99175.31;;;11.36;70.61
62548;BME280;48602;45.192;5.722;2023-04-02T11:35:54;99187.19;;;11.46;69.98
62548;BME280;48602;45.192;5.722;2023-04-02T11:40:56;99194.31;;;11.44;70.77
62548;BME280;48602;45.192;5.722;2023-04-02T11:46:04;99199.84;;;11.38;70.16
62548;BME280;48602;45.192;5.722;2023-04-02T11:48:35;99195.56;;;11.36;69.68
62548;BME280;48602;45.192;5.722;2023-04-02T11:51:25;99211.34;;;11.37;69.01
62548;BME280;48602;45.192;5.722;2023-04-02T11:54:00;99214.22;;;11.31;69.86
62548;BME280;48602;45.192;5.722;2023-04-02T11:56:29;99214.53;;;11.24;70.24
62548;BME280;48602;45.192;5.722;2023-04-02T12:07:39;99192.81;;;11.39;69.62
62548;BME280;48602;45.192;5.722;2023-04-02T12:10:23;99204.75;;;11.47;68.28
62548;BME280;48602;45.192;5.722;2023-04-02T12:12:52;99211.53;;;11.53;67.48
62548;BME280;48602;45.192;5.722;2023-04-02T12:15:44;99204.31;;;11.57;67.30
62548;BME280;48602;45.192;5.722;2023-04-02T12:18:21;99205.00;;;11.62;67.55
62548;BME280;48602;45.192;5.722;2023-04-02T12:20:49;99201.50;;;11.61;67.71
62548;BME280;48602;45.192;5.722;2023-04-02T12:23:22;99189.94;;;11.64;67.55
62548;BME280;48602;45.192;5.722;2023-04-02T12:26:03;99194.00;;;11.72;66.70
62548;BME280;48602;45.192;5.722;2023-04-02T12:28:31;99195.19;;;11.85;65.59
62548;BME280;48602;45.192;5.722;2023-04-02T12:31:16;99201.06;;;11.92;64.39
62548;BME280;48602;45.192;5.722;2023-04-02T12:33:43;99219.28;;;11.98;64.73
62548;BME280;48602;45.192;5.722;2023-04-02T12:41:26;99217.41;;;12.20;65.31
62548;BME280;48602;45.192;5.722;2023-04-02T12:43:58;99231.69;;;12.16;66.11
62548;BME280;48602;45.192;5.722;2023-04-02T12:46:24;99230.09;;;12.12;66.88
62548;BME280;48602;45.192;5.722;2023-04-02T12:48:52;99223.38;;;12.05;68.35
62548;BME280;48602;45.192;5.722;2023-04-02T12:51:18;99200.84;;;11.97;69.32
62548;BME280;48602;45.192;5.722;2023-04-02T12:53:51;99210.63;;;11.95;70.15
62548;BME280;48602;45.192;5.722;2023-04-02T12:56:19;99193.34;;;11.87;71.13
62548;BME280;48602;45.192;5.722;2023-04-02T12:58:54;99195.13;;;11.87;70.19
62548;BME280;48602;45.192;5.722;2023-04-02T13:01:22;99202.19;;;11.86;68.98
62548;BME280;48602;45.192;5.722;2023-04-02T13:06:30;99229.78;;;11.79;65.52
62548;BME280;48602;45.192;5.722;2023-04-02T13:08:57;99190.50;;;11.72;66.80
62548;BME280;48602;45.192;5.722;2023-04-02T13:11:33;99195.78;;;11.72;67.11
62548;BME280;48602;45.192;5.722;2023-04-02T13:14:01;99171.84;;;11.75;66.85
62548;BME280;48602;45.192;5.722;2023-04-02T13:16:32;99210.59;;;11.74;65.88
62548;BME280;48602;45.192;5.722;2023-04-02T13:19:24;99189.47;;;11.74;66.05
62548;BME280;48602;45.192;5.722;2023-04-02T13:21:51;99169.84;;;11.81;65.26
62548;BME280;48602;45.192;5.722;2023-04-02T13:24:25;99183.41;;;11.93;65.61
62548;BME280;48602;45.192;5.722;2023-04-02T13:26:55;99190.81;;;12.05;64.37
62548;BME280;48602;45.192;5.722;2023-04-02T13:29:29;99180.53;;;12.17;64.38
62548;BME280;48602;45.192;5.722;2023-04-02T13:32:05;99186.63;;;12.19;63.24
62548;BME280;48602;45.192;5.722;2023-04-02T13:34:32;99196.47;;;12.16;63.86
62548;BME280;48602;45.192;5.722;2023-04-02T13:36:58;99183.97;;;12.19;64.50
62548;BME280;48602;45.192;5.722;2023-04-02T13:39:24;99164.31;;;12.25;64.67
62548;BME280;48602;45.192;5.722;2023-04-02T13:42:00;99175.47;;;12.32;63.34
62548;BME280;48602;45.192;5.722;2023-04-02T13:44:29;99172.97;;;12.29;63.61
62548;BME280;48602;45.192;5.722;2023-04-02T13:46:56;99174.88;;;12.25;63.91
62548;BME280;48602;45.192;5.722;2023-04-02T13:49:23;99183.13;;;12.19;63.33
62548;BME280;48602;45.192;5.722;2023-04-02T13:51:54;99178.09;;;12.13;63.68
62548;BME280;48602;45.192;5.722;2023-04-02T13:54:32;99164.03;;;12.12;64.45
62548;BME280;48602;45.192;5.722;2023-04-02T13:57:03;99166.47;;;12.17;65.18
62548;BME280;48602;45.192;5.722;2023-04-02T13:59:28;99188.81;;;12.10;66.30
62548;BME280;48602;45.192;5.722;2023-04-02T14:01:57;99195.06;;;12.07;65.95
62548;BME280;48602;45.192;5.722;2023-04-02T14:04:26;99172.38;;;12.03;66.57
62548;BME280;48602;45.192;5.722;2023-04-02T14:07:26;99187.50;;;12.00;66.15
62548;BME280;48602;45.192;5.722;2023-04-02T14:12:53;99205.94;;;12.01;66.56
62548;BME280;48602;45.192;5.722;2023-04-02T14:18:48;99179.69;;;12.17;66.12
62548;BME280;48602;45.192;5.722;2023-04-02T14:24:10;99195.78;;;12.50;65.19
62548;BME280;48602;45.192;5.722;2023-04-02T14:31:58;99211.44;;;12.90;62.94
62548;BME280;48602;45.192;5.722;2023-04-02T14:34:42;99197.59;;;12.85;62.12
62548;BME280;48602;45.192;5.722;2023-04-02T14:42:43;99187.84;;;12.69;62.32
62548;BME280;48602;45.192;5.722;2023-04-02T14:47:48;99180.75;;;12.69;62.61
62548;BME280;48602;45.192;5.722;2023-04-02T14:50:22;99186.78;;;12.73;62.43
62548;BME280;48602;45.192;5.722;2023-04-02T14:52:55;99179.13;;;12.67;62.35
62548;BME280;48602;45.192;5.722;2023-04-02T14:57:51;99188.19;;;12.42;62.63
62548;BME280;48602;45.192;5.722;2023-04-02T15:03:05;99183.97;;;12.19;63.79
62548;BME280;48602;45.192;5.722;2023-04-02T15:08:25;99197.28;;;11.98;65.91
62548;BME280;48602;45.192;5.722;2023-04-02T15:14:00;99219.34;;;11.76;67.25
62548;BME280;48602;45.192;5.722;2023-04-02T15:16:29;99217.09;;;11.67;68.12
62548;BME280;48602;45.192;5.722;2023-04-02T15:18:58;99210.28;;;11.62;68.30
62548;BME280;48602;45.192;5.722;2023-04-02T15:21:44;99191.97;;;11.57;67.95
62548;BME280;48602;45.192;5.722;2023-04-02T15:35:36;99233.44;;;11.35;71.63
62548;BME280;48602;45.192;5.722;2023-04-02T15:43:37;99234.06;;;11.19;73.60
62548;BME280;48602;45.192;5.722;2023-04-02T15:59:42;99222.53;;;11.00;74.91
62548;BME280;48602;45.192;5.722;2023-04-02T16:08:00;99245.06;;;10.87;74.12
62548;BME280;48602;45.192;5.722;2023-04-02T16:10:36;99236.28;;;10.87;74.00
62548;BME280;48602;45.192;5.722;2023-04-02T16:13:17;99237.84;;;10.91;73.40
62548;BME280;48602;45.192;5.722;2023-04-02T16:15:51;99243.00;;;10.94;73.62
62548;BME280;48602;45.192;5.722;2023-04-02T16:21:13;99246.34;;;10.99;73.77
62548;BME280;48602;45.192;5.722;2023-04-02T16:23:40;99239.16;;;11.02;73.10
62548;BME280;48602;45.192;5.722;2023-04-02T16:34:49;99247.63;;;11.10;71.18
62548;BME280;48602;45.192;5.722;2023-04-02T16:37:35;99255.53;;;11.10;71.85
62548;BME280;48602;45.192;5.722;2023-04-02T17:04:15;99303.66;;;10.72;76.97
62548;BME280;48602;45.192;5.722;2023-04-02T17:12:29;99295.53;;;10.55;76.83
62548;BME280;48602;45.192;5.722;2023-04-02T17:15:01;99304.41;;;10.52;77.54
62548;BME280;48602;45.192;5.722;2023-04-02T17:17:28;99309.78;;;10.49;77.82
62548;BME280;48602;45.192;5.722;2023-04-02T17:19:59;99315.31;;;10.41;79.66
62548;BME280;48602;45.192;5.722;2023-04-02T17:22:24;99318.19;;;10.35;81.02
62548;BME280;48602;45.192;5.722;2023-04-02T17:24:56;99316.56;;;10.31;81.39
62548;BME280;48602;45.192;5.722;2023-04-02T17:27:27;99309.69;;;10.27;82.01
62548;BME280;48602;45.192;5.722;2023-04-02T17:30:18;99330.91;;;10.23;83.18
62548;BME280;48602;45.192;5.722;2023-04-02T17:32:46;99314.41;;;10.18;82.22
62548;BME280;48602;45.192;5.722;2023-04-02T17:40:56;99319.88;;;10.11;82.27
62548;BME280;48602;45.192;5.722;2023-04-02T17:46:10;99330.47;;;10.10;83.45
62548;BME280;48602;45.192;5.722;2023-04-02T17:48:46;99329.69;;;10.06;82.70
62548;BME280;48602;45.192;5.722;2023-04-02T17:51:34;99333.25;;;10.05;82.83
62548;BME280;48602;45.192;5.722;2023-04-02T17:59:40;99351.69;;;10.05;82.72